sensor_id;sensor_type;location;lat;lon;timestamp;pressure;altitude;pressure_sealevel;temperature;humidity
38620;BME280;24376;51.986;4.662;2022-09-09T00:00:06;100869.25;;;14.70;70.46
38620;BME280;24376;51.986;4.662;2022-09-09T00:02:31;100834.09;;;14.68;70.64
38620;BME280;24376;51.986;4.662;2022-09-09T00:05:04;100897.31;;;14.64;69.97
38620;BME280;24376;51.986;4.662;2022-09-09T00:07:50;100952.59;;;14.60;69.31
38620;BME280;24376;51.986;4.662;2022-09-09T00:20:43;101007.84;;;14.51;68.11
38620;BME280;24376;51.986;4.662;2022-09-09T00:23:12;101030.59;;;14.47;67.92
38620;BME280;24376;51.986;4.662;2022-09-09T00:28:26;101127.09;;;14.42;67.36
38620;BME280;24376;51.986;4.662;2022-09-09T00:30:52;101170.16;;;14.43;67.14
38620;BME280;24376;51.986;4.662;2022-09-09T00:33:19;101144.69;;;14.43;67.27
38620;BME280;24376;51.986;4.662;2022-09-09T00:35:48;101272.78;;;14.35;66.75
38620;BME280;24376;51.986;4.662;2022-09-09T00:38:15;101278.78;;;14.26;66.72
38620;BME280;24376;51.986;4.662;2022-09-09T00:43:24;101217.06;;;14.14;66.83
38620;BME280;24376;51.986;4.662;2022-09-09T00:48:37;101472.50;;;14.10;66.31
38620;BME280;24376;51.986;4.662;2022-09-09T00:51:08;101537.38;;;14.08;66.28
38620;BME280;24376;51.986;4.662;2022-09-09T00:56:23;101616.09;;;13.96;66.18
38620;BME280;24376;51.986;4.662;2022-09-09T00:58:54;101592.47;;;13.99;66.20
38620;BME280;24376;51.986;4.662;2022-09-09T01:01:23;101694.41;;;14.03;66.15
38620;BME280;24376;51.986;4.662;2022-09-09T01:03:52;101824.19;;;13.98;66.07
38620;BME280;24376;51.986;4.662;2022-09-09T01:11:29;101959.44;;;14.01;66.07
38620;BME280;24376;51.986;4.662;2022-09-09T01:14:02;102068.88;;;13.92;66.07
38620;BME280;24376;51.986;4.662;2022-09-09T01:16:34;102158.34;;;13.90;66.09
38620;BME280;24376;51.986;4.662;2022-09-09T01:18:59;102239.22;;;13.94;66.13
38620;BME280;24376;51.986;4.662;2022-09-09T01:21:43;102167.28;;;13.95;66.17
38620;BME280;24376;51.986;4.662;2022-09-09T01:26:44;102426.88;;;14.13;66.20
38620;BME280;24376;51.986;4.662;2022-09-09T01:29:10;102413.75;;;14.14;66.23
38620;BME280;24376;51.986;4.662;2022-09-09T01:31:37;102420.09;;;14.19;66.24
38620;BME280;24376;51.986;4.662;2022-09-09T01:34:08;102459.69;;;14.21;66.29
38620;BME280;24376;51.986;4.662;2022-09-09T01:36:36;102569.63;;;14.25;66.28
38620;BME280;24376;51.986;4.662;2022-09-09T01:39:02;102568.09;;;14.31;66.30
38620;BME280;24376;51.986;4.662;2022-09-09T01:41:27;102555.81;;;14.32;66.28
38620;BME280;24376;51.986;4.662;2022-09-09T01:43:53;102562.91;;;14.33;66.28
38620;BME280;24376;51.986;4.662;2022-09-09T01:46:19;102505.75;;;14.32;66.26
38620;BME280;24376;51.986;4.662;2022-09-09T01:48:46;102457.16;;;14.24;66.26
38620;BME280;24376;51.986;4.662;2022-09-09T01:51:11;102520.75;;;14.33;66.24
38620;BME280;24376;51.986;4.662;2022-09-09T01:53:37;102410.13;;;14.10;66.14
38620;BME280;24376;51.986;4.662;2022-09-09T01:56:12;102474.56;;;13.96;66.17
38620;BME280;24376;51.986;4.662;2022-09-09T02:03:56;102447.66;;;13.81;66.28
38620;BME280;24376;51.986;4.662;2022-09-09T02:08:53;102531.38;;;13.90;66.31
38620;BME280;24376;51.986;4.662;2022-09-09T02:11:24;102534.19;;;13.94;66.34
38620;BME280;24376;51.986;4.662;2022-09-09T02:13:51;102499.47;;;14.04;66.38
38620;BME280;24376;51.986;4.662;2022-09-09T02:16:24;102637.97;;;13.99;66.37
38620;BME280;24376;51.986;4.662;2022-09-09T02:18:53;102553.56;;;13.96;66.36
38620;BME280;24376;51.986;4.662;2022-09-09T02:21:20;102515.69;;;13.93;66.36
38620;BME280;24376;51.986;4.662;2022-09-09T02:23:47;102654.22;;;13.89;66.38
38620;BME280;24376;51.986;4.662;2022-09-09T02:26:13;102578.47;;;13.82;66.37
38620;BME280;24376;51.986;4.662;2022-09-09T02:28:45;102522.09;;;13.77;66.38
38620;BME280;24376;51.986;4.662;2022-09-09T02:31:11;102438.69;;;13.76;66.40
38620;BME280;24376;51.986;4.662;2022-09-09T02:33:38;102525.19;;;13.67;66.39
38620;BME280;24376;51.986;4.662;2022-09-09T02:36:05;102530.59;;;13.70;66.40
38620;BME280;24376;51.986;4.662;2022-09-09T02:38:33;102577.88;;;13.68;66.40
38620;BME280;24376;51.986;4.662;2022-09-09T02:41:00;102552.34;;;13.66;66.40
38620;BME280;24376;51.986;4.662;2022-09-09T02:43:30;102566.41;;;13.66;66.40
38620;BME280;24376;51.986;4.662;2022-09-09T02:48:28;102595.41;;;13.68;66.41
38620;BME280;24376;51.986;4.662;2022-09-09T02:55:58;102590.03;;;13.65;66.42
38620;BME280;24376;51.986;4.662;2022-09-09T02:58:26;102610.94;;;13.62;66.40
38620;BME280;24376;51.986;4.662;2022-09-09T03:00:51;102616.69;;;13.51;66.40
38620;BME280;24376;51.986;4.662;2022-09-09T03:03:18;102621.94;;;13.51;66.40
38620;BME280;24376;51.986;4.662;2022-09-09T03:05:43;102585.09;;;13.51;66.40
38620;BME280;24376;51.986;4.662;2022-09-09T03:08:09;102617.63;;;13.53;66.40
38620;BME280;24376;51.986;4.662;2022-09-09T03:10:35;102581.63;;;13.52;66.40
38620;BME280;24376;51.986;4.662;2022-09-09T03:13:02;102676.38;;;13.52;66.40
38620;BME280;24376;51.986;4.662;2022-09-09T03:15:29;102616.53;;;13.48;66.40
38620;BME280;24376;51.986;4.662;2022-09-09T03:17:56;102585.81;;;13.47;66.39
38620;BME280;24376;51.986;4.662;2022-09-09T03:20:22;102625.97;;;13.43;66.39
38620;BME280;24376;51.986;4.662;2022-09-09T03:22:47;102493.56;;;13.44;66.40
38620;BME280;24376;51.986;4.662;2022-09-09T03:25:13;102341.69;;;13.40;66.39
38620;BME280;24376;51.986;4.662;2022-09-09T03:27:40;102730.13;;;13.38;66.39
38620;BME280;24376;51.986;4.662;2022-09-09T03:30:05;102726.03;;;13.45;66.40
38620;BME280;24376;51.986;4.662;2022-09-09T03:32:31;102682.28;;;13.47;66.40
38620;BME280;24376;51.986;4.662;2022-09-09T03:34:56;102652.22;;;13.42;66.39
38620;BME280;24376;51.986;4.662;2022-09-09T03:37:21;102663.50;;;13.39;66.39
38620;BME280;24376;51.986;4.662;2022-09-09T03:39:47;102650.34;;;13.39;66.40
38620;BME280;24376;51.986;4.662;2022-09-09T03:42:13;102657.28;;;13.37;66.40
38620;BME280;24376;51.986;4.662;2022-09-09T03:44:39;102676.47;;;13.35;66.38
38620;BME280;24376;51.986;4.662;2022-09-09T03:47:04;102693.28;;;13.38;66.40
38620;BME280;24376;51.986;4.662;2022-09-09T03:49:31;102690.59;;;13.37;66.40
38620;BME280;24376;51.986;4.662;2022-09-09T03:51:56;102700.16;;;13.35;66.39
38620;BME280;24376;51.986;4.662;2022-09-09T03:54:23;102605.25;;;13.30;66.39
38620;BME280;24376;51.986;4.662;2022-09-09T03:56:49;102567.25;;;13.23;66.39
38620;BME280;24376;51.986;4.662;2022-09-09T03:59:14;102665.31;;;13.21;66.38
38620;BME280;24376;51.986;4.662;2022-09-09T04:01:42;102614.59;;;13.23;66.39
38620;BME280;24376;51.986;4.662;2022-09-09T04:04:07;102734.63;;;13.21;66.39
38620;BME280;24376;51.986;4.662;2022-09-09T04:06:33;102615.34;;;13.21;66.39
38620;BME280;24376;51.986;4.662;2022-09-09T04:08:59;102574.25;;;13.23;66.39
38620;BME280;24376;51.986;4.662;2022-09-09T04:11:24;102586.31;;;13.19;66.39
38620;BME280;24376;51.986;4.662;2022-09-09T04:13:49;102550.38;;;13.20;66.40
38620;BME280;24376;51.986;4.662;2022-09-09T04:16:15;102540.72;;;13.19;66.39
38620;BME280;24376;51.986;4.662;2022-09-09T04:18:41;102552.91;;;13.17;66.39
38620;BME280;24376;51.986;4.662;2022-09-09T04:21:06;102702.97;;;13.20;66.39
38620;BME280;24376;51.986;4.662;2022-09-09T04:23:32;102546.13;;;13.22;66.38
38620;BME280;24376;51.986;4.662;2022-09-09T04:25:59;102528.44;;;13.19;66.40
38620;BME280;24376;51.986;4.662;2022-09-09T04:28:25;102403.03;;;13.18;66.39
38620;BME280;24376;51.986;4.662;2022-09-09T04:30:53;102579.28;;;13.18;66.39
38620;BME280;24376;51.986;4.662;2022-09-09T04:33:27;102557.47;;;13.21;66.39
38620;BME280;24376;51.986;4.662;2022-09-09T04:35:52;102626.03;;;13.24;66.39
38620;BME280;24376;51.986;4.662;2022-09-09T04:38:19;102568.97;;;13.23;66.39
38620;BME280;24376;51.986;4.662;2022-09-09T04:40:47;102512.91;;;13.24;66.40
38620;BME280;24376;51.986;4.662;2022-09-09T04:43:12;102538.91;;;13.18;66.39
38620;BME280;24376;51.986;4.662;2022-09-09T04:45:39;102511.91;;;13.22;66.40
38620;BME280;24376;51.986;4.662;2022-09-09T04:48:05;102525.22;;;13.25;66.39
38620;BME280;24376;51.986;4.662;2022-09-09T04:50:30;102591.13;;;13.28;66.38
38620;BME280;24376;51.986;4.662;2022-09-09T04:52:59;102407.88;;;13.28;66.39
38620;BME280;24376;51.986;4.662;2022-09-09T04:55:24;102317.53;;;13.28;66.40
38620;BME280;24376;51.986;4.662;2022-09-09T04:57:49;102466.84;;;13.34;66.40
38620;BME280;24376;51.986;4.662;2022-09-09T05:00:14;102408.88;;;13.32;66.40
38620;BME280;24376;51.986;4.662;2022-09-09T05:02:40;102410.56;;;13.30;66.40
38620;BME280;24376;51.986;4.662;2022-09-09T05:05:07;102366.03;;;13.35;66.39
38620;BME280;24376;51.986;4.662;2022-09-09T05:07:32;102305.56;;;13.36;66.40
38620;BME280;24376;51.986;4.662;2022-09-09T05:09:57;102310.69;;;13.33;66.40
38620;BME280;24376;51.986;4.662;2022-09-09T05:12:23;102322.25;;;13.37;66.40
38620;BME280;24376;51.986;4.662;2022-09-09T05:14:49;102335.44;;;13.38;66.41
38620;BME280;24376;51.986;4.662;2022-09-09T05:17:15;102327.50;;;13.37;66.40
38620;BME280;24376;51.986;4.662;2022-09-09T05:19:41;102336.47;;;13.42;66.40
38620;BME280;24376;51.986;4.662;2022-09-09T05:22:06;102290.91;;;13.43;66.41
38620;BME280;24376;51.986;4.662;2022-09-09T05:24:32;102357.63;;;13.45;66.41
38620;BME280;24376;51.986;4.662;2022-09-09T05:26:58;102333.28;;;13.50;66.42
38620;BME280;24376;51.986;4.662;2022-09-09T05:29:24;102263.06;;;13.49;66.40
38620;BME280;24376;51.986;4.662;2022-09-09T05:31:50;102330.09;;;13.59;66.42
38620;BME280;24376;51.986;4.662;2022-09-09T05:34:15;102152.94;;;13.60;66.41
38620;BME280;24376;51.986;4.662;2022-09-09T05:36:40;102097.81;;;13.65;66.43
38620;BME280;24376;51.986;4.662;2022-09-09T05:39:05;102306.06;;;13.74;66.43
38620;BME280;24376;51.986;4.662;2022-09-09T05:41:30;102295.16;;;13.87;66.43
38620;BME280;24376;51.986;4.662;2022-09-09T05:43:56;102282.53;;;14.02;66.44
38620;BME280;24376;51.986;4.662;2022-09-09T05:46:23;102281.22;;;14.15;66.45
38620;BME280;24376;51.986;4.662;2022-09-09T05:48:50;102205.28;;;14.29;66.46
38620;BME280;24376;51.986;4.662;2022-09-09T05:51:20;102170.47;;;14.39;66.45
38620;BME280;24376;51.986;4.662;2022-09-09T05:53:46;102191.13;;;14.52;66.46
38620;BME280;24376;51.986;4.662;2022-09-09T05:56:16;102049.16;;;14.64;66.47
38620;BME280;24376;51.986;4.662;2022-09-09T05:58:47;102019.53;;;14.73;66.47
38620;BME280;24376;51.986;4.662;2022-09-09T06:01:22;101723.50;;;14.79;66.47
38620;BME280;24376;51.986;4.662;2022-09-09T06:03:48;101806.47;;;14.95;66.46
38620;BME280;24376;51.986;4.662;2022-09-09T06:06:14;101699.25;;;14.95;66.42
38620;BME280;24376;51.986;4.662;2022-09-09T06:08:41;101563.09;;;15.00;66.36
38620;BME280;24376;51.986;4.662;2022-09-09T06:11:10;101441.94;;;15.09;66.32
38620;BME280;24376;51.986;4.662;2022-09-09T06:13:36;101429.81;;;15.19;66.27
38620;BME280;24376;51.986;4.662;2022-09-09T06:16:03;101311.19;;;15.27;66.20
38620;BME280;24376;51.986;4.662;2022-09-09T06:18:29;101138.72;;;15.18;66.14
38620;BME280;24376;51.986;4.662;2022-09-09T06:20:55;101079.03;;;15.27;66.11
38620;BME280;24376;51.986;4.662;2022-09-09T06:23:20;100890.00;;;15.32;66.11
38620;BME280;24376;51.986;4.662;2022-09-09T06:25:46;100627.91;;;15.24;66.27
38620;BME280;24376;51.986;4.662;2022-09-09T06:28:11;100656.97;;;15.33;66.17
38620;BME280;24376;51.986;4.662;2022-09-09T06:30:36;100496.91;;;15.41;66.32
38620;BME280;24376;51.986;4.662;2022-09-09T06:33:01;100349.16;;;15.53;66.49
38620;BME280;24376;51.986;4.662;2022-09-09T06:35:27;100216.28;;;15.71;66.71
38620;BME280;24376;51.986;4.662;2022-09-09T06:37:53;100037.59;;;15.84;67.20
38620;BME280;24376;51.986;4.662;2022-09-09T06:40:18;99826.16;;;16.04;68.26
38620;BME280;24376;51.986;4.662;2022-09-09T06:42:44;99775.09;;;16.06;68.81
38620;BME280;24376;51.986;4.662;2022-09-09T06:45:09;99686.06;;;16.14;70.87
38620;BME280;24376;51.986;4.662;2022-09-09T06:47:35;99608.47;;;16.21;73.17
38620;BME280;24376;51.986;4.662;2022-09-09T06:50:00;99874.25;;;16.32;67.97
38620;BME280;24376;51.986;4.662;2022-09-09T06:52:25;99855.66;;;16.41;68.51
38620;BME280;24376;51.986;4.662;2022-09-09T06:54:50;99784.28;;;16.42;69.42
38620;BME280;24376;51.986;4.662;2022-09-09T06:57:16;99705.97;;;16.37;71.20
38620;BME280;24376;51.986;4.662;2022-09-09T06:59:41;99646.09;;;16.37;73.82
38620;BME280;24376;51.986;4.662;2022-09-09T07:02:07;99566.69;;;16.45;76.73
38620;BME280;24376;51.986;4.662;2022-09-09T07:04:32;99477.63;;;16.50;81.53
38620;BME280;24376;51.986;4.662;2022-09-09T07:06:57;99377.91;;;16.58;88.77
38620;BME280;24376;51.986;4.662;2022-09-09T07:09:23;99294.22;;;16.60;100.00
38620;BME280;24376;51.986;4.662;2022-09-09T07:11:49;99213.97;;;16.64;100.00
38620;BME280;24376;51.986;4.662;2022-09-09T07:14:17;99138.97;;;16.68;100.00
38620;BME280;24376;51.986;4.662;2022-09-09T07:16:43;99058.31;;;16.88;100.00
38620;BME280;24376;51.986;4.662;2022-09-09T07:19:08;98997.03;;;17.03;100.00
38620;BME280;24376;51.986;4.662;2022-09-09T07:21:33;98922.09;;;17.04;100.00
38620;BME280;24376;51.986;4.662;2022-09-09T07:23:59;98874.06;;;17.18;100.00
38620;BME280;24376;51.986;4.662;2022-09-09T07:26:25;98819.84;;;17.31;100.00
38620;BME280;24376;51.986;4.662;2022-09-09T07:28:51;98781.84;;;17.34;100.00
38620;BME280;24376;51.986;4.662;2022-09-09T07:31:19;98751.97;;;17.55;100.00
38620;BME280;24376;51.986;4.662;2022-09-09T07:33:45;98721.09;;;17.55;100.00
38620;BME280;24376;51.986;4.662;2022-09-09T07:36:14;98689.19;;;17.60;100.00
38620;BME280;24376;51.986;4.662;2022-09-09T07:38:45;98662.09;;;17.53;100.00
38620;BME280;24376;51.986;4.662;2022-09-09T07:41:12;98623.34;;;17.51;100.00
38620;BME280;24376;51.986;4.662;2022-09-09T07:43:41;98587.47;;;17.44;100.00
38620;BME280;24376;51.986;4.662;2022-09-09T07:46:06;98590.56;;;17.32;100.00
38620;BME280;24376;51.986;4.662;2022-09-09T07:48:32;98600.81;;;17.17;100.00
38620;BME280;24376;51.986;4.662;2022-09-09T07:53:51;98593.91;;;17.13;100.00
38620;BME280;24376;51.986;4.662;2022-09-09T07:56:17;98611.16;;;16.98;100.00
38620;BME280;24376;51.986;4.662;2022-09-09T07:58:53;98619.28;;;16.94;100.00
38620;BME280;24376;51.986;4.662;2022-09-09T08:01:26;98639.66;;;16.90;100.00
38620;BME280;24376;51.986;4.662;2022-09-09T08:03:53;98668.78;;;16.89;100.00
38620;BME280;24376;51.986;4.662;2022-09-09T08:06:19;98687.16;;;16.93;100.00
38620;BME280;24376;51.986;4.662;2022-09-09T08:08:44;98709.09;;;16.95;100.00
38620;BME280;24376;51.986;4.662;2022-09-09T08:11:12;98728.25;;;17.02;100.00
38620;BME280;24376;51.986;4.662;2022-09-09T08:13:39;98742.19;;;17.07;100.00
38620;BME280;24376;51.986;4.662;2022-09-09T08:16:06;98745.44;;;17.15;100.00
38620;BME280;24376;51.986;4.662;2022-09-09T08:18:31;98745.56;;;17.12;100.00
38620;BME280;24376;51.986;4.662;2022-09-09T08:20:57;98751.75;;;17.11;100.00
38620;BME280;24376;51.986;4.662;2022-09-09T08:23:22;98778.44;;;17.03;100.00
38620;BME280;24376;51.986;4.662;2022-09-09T08:25:49;98786.34;;;17.05;100.00
38620;BME280;24376;51.986;4.662;2022-09-09T08:28:15;98807.59;;;17.02;100.00
38620;BME280;24376;51.986;4.662;2022-09-09T08:30:40;98827.09;;;16.98;100.00
38620;BME280;24376;51.986;4.662;2022-09-09T08:33:06;98848.25;;;16.98;100.00
38620;BME280;24376;51.986;4.662;2022-09-09T08:35:31;98875.28;;;17.08;100.00
38620;BME280;24376;51.986;4.662;2022-09-09T08:37:57;98897.09;;;17.14;100.00
38620;BME280;24376;51.986;4.662;2022-09-09T08:40:24;98908.50;;;17.16;100.00
38620;BME280;24376;51.986;4.662;2022-09-09T08:42:51;98914.34;;;17.26;100.00
38620;BME280;24376;51.986;4.662;2022-09-09T08:50:32;98941.38;;;17.36;100.00
38620;BME280;24376;51.986;4.662;2022-09-09T08:53:11;98946.97;;;17.26;100.00
38620;BME280;24376;51.986;4.662;2022-09-09T08:55:48;98964.19;;;17.12;100.00
38620;BME280;24376;51.986;4.662;2022-09-09T09:03:20;99063.94;;;17.07;100.00
38620;BME280;24376;51.986;4.662;2022-09-09T09:05:49;99116.41;;;16.89;100.00
38620;BME280;24376;51.986;4.662;2022-09-09T09:10:49;99230.25;;;16.83;100.00
38620;BME280;24376;51.986;4.662;2022-09-09T09:13:20;99280.44;;;16.85;100.00
38620;BME280;24376;51.986;4.662;2022-09-09T09:15:48;99313.75;;;16.92;100.00
38620;BME280;24376;51.986;4.662;2022-09-09T09:18:15;99357.94;;;16.87;100.00
38620;BME280;24376;51.986;4.662;2022-09-09T09:23:12;99420.56;;;16.85;100.00
38620;BME280;24376;51.986;4.662;2022-09-09T09:25:41;99446.06;;;16.87;100.00
38620;BME280;24376;51.986;4.662;2022-09-09T09:28:12;99487.44;;;16.90;100.00
38620;BME280;24376;51.986;4.662;2022-09-09T09:30:42;99522.50;;;16.98;100.00
38620;BME280;24376;51.986;4.662;2022-09-09T09:35:50;99607.03;;;17.02;100.00
38620;BME280;24376;51.986;4.662;2022-09-09T09:38:19;99647.66;;;17.00;100.00
38620;BME280;24376;51.986;4.662;2022-09-09T09:40:49;99673.22;;;16.98;100.00
38620;BME280;24376;51.986;4.662;2022-09-09T09:43:22;99701.53;;;16.93;100.00
38620;BME280;24376;51.986;4.662;2022-09-09T09:45:48;99724.03;;;17.17;100.00
38620;BME280;24376;51.986;4.662;2022-09-09T09:48:14;99739.63;;;17.31;100.00
38620;BME280;24376;51.986;4.662;2022-09-09T09:50:46;99750.47;;;17.63;100.00
38620;BME280;24376;51.986;4.662;2022-09-09T09:53:25;99732.06;;;18.00;100.00
38620;BME280;24376;51.986;4.662;2022-09-09T09:56:01;99683.09;;;18.18;100.00
38620;BME280;24376;51.986;4.662;2022-09-09T09:58:27;99630.84;;;18.59;100.00
38620;BME280;24376;51.986;4.662;2022-09-09T10:00:56;99558.94;;;19.04;100.00
38620;BME280;24376;51.986;4.662;2022-09-09T10:03:26;99448.88;;;18.87;100.00
38620;BME280;24376;51.986;4.662;2022-09-09T10:05:52;99340.59;;;19.02;100.00
38620;BME280;24376;51.986;4.662;2022-09-09T10:08:17;99270.06;;;19.21;100.00
38620;BME280;24376;51.986;4.662;2022-09-09T10:13:25;99104.69;;;19.21;100.00
38620;BME280;24376;51.986;4.662;2022-09-09T10:18:44;99056.28;;;19.14;100.00
38620;BME280;24376;51.986;4.662;2022-09-09T10:21:24;99032.03;;;19.00;100.00
38620;BME280;24376;51.986;4.662;2022-09-09T10:36:31;99053.22;;;19.25;100.00
38620;BME280;24376;51.986;4.662;2022-09-09T10:39:14;99072.69;;;19.25;100.00
38620;BME280;24376;51.986;4.662;2022-09-09T10:41:56;99102.78;;;18.99;100.00
38620;BME280;24376;51.986;4.662;2022-09-09T10:52:29;99279.06;;;18.61;100.00
38620;BME280;24376;51.986;4.662;2022-09-09T10:54:56;99309.44;;;18.51;100.00
38620;BME280;24376;51.986;4.662;2022-09-09T10:57:31;99330.72;;;18.48;100.00
38620;BME280;24376;51.986;4.662;2022-09-09T11:00:02;99350.13;;;18.50;100.00
38620;BME280;24376;51.986;4.662;2022-09-09T11:02:29;99373.63;;;18.62;100.00
38620;BME280;24376;51.986;4.662;2022-09-09T11:04:57;99409.16;;;18.86;100.00
38620;BME280;24376;51.986;4.662;2022-09-09T11:07:29;99415.75;;;19.01;100.00
38620;BME280;24376;51.986;4.662;2022-09-09T11:09:59;99410.78;;;19.46;100.00
38620;BME280;24376;51.986;4.662;2022-09-09T11:12:26;99369.66;;;19.58;100.00
38620;BME280;24376;51.986;4.662;2022-09-09T11:14:54;99326.81;;;19.44;100.00
38620;BME280;24376;51.986;4.662;2022-09-09T11:17:23;99293.59;;;19.82;100.00
38620;BME280;24376;51.986;4.662;2022-09-09T11:19:51;99254.41;;;20.12;100.00
38620;BME280;24376;51.986;4.662;2022-09-09T11:25:32;99213.88;;;19.83;100.00
38620;BME280;24376;51.986;4.662;2022-09-09T11:27:41;99194.19;;;19.89;100.00
38620;BME280;24376;51.986;4.662;2022-09-09T11:30:17;99183.91;;;19.80;100.00
38620;BME280;24376;51.986;4.662;2022-09-09T11:38:09;99238.13;;;19.74;100.00
38620;BME280;24376;51.986;4.662;2022-09-09T11:40:38;99222.25;;;19.73;100.00
38620;BME280;24376;51.986;4.662;2022-09-09T11:43:05;99219.19;;;19.83;100.00
38620;BME280;24376;51.986;4.662;2022-09-09T11:45:33;99255.63;;;19.55;100.00
38620;BME280;24376;51.986;4.662;2022-09-09T11:48:00;99282.69;;;19.39;100.00
38620;BME280;24376;51.986;4.662;2022-09-09T11:50:27;99356.91;;;19.16;100.00
38620;BME280;24376;51.986;4.662;2022-09-09T11:53:05;99440.97;;;18.55;100.00
38620;BME280;24376;51.986;4.662;2022-09-09T11:55:32;99532.84;;;18.56;100.00
38620;BME280;24376;51.986;4.662;2022-09-09T11:58:02;99615.56;;;18.34;100.00
38620;BME280;24376;51.986;4.662;2022-09-09T12:00:38;99696.72;;;18.01;100.00
38620;BME280;24376;51.986;4.662;2022-09-09T12:03:05;99805.38;;;18.00;100.00
38620;BME280;24376;51.986;4.662;2022-09-09T12:05:40;99879.47;;;18.03;100.00
38620;BME280;24376;51.986;4.662;2022-09-09T12:08:09;99925.88;;;18.24;100.00
38620;BME280;24376;51.986;4.662;2022-09-09T12:10:36;99985.50;;;18.00;100.00
38620;BME280;24376;51.986;4.662;2022-09-09T12:13:19;100045.47;;;18.04;100.00
38620;BME280;24376;51.986;4.662;2022-09-09T12:15:57;100103.69;;;18.07;100.00
38620;BME280;24376;51.986;4.662;2022-09-09T12:18:31;100142.78;;;17.93;100.00
38620;BME280;24376;51.986;4.662;2022-09-09T12:21:06;100178.16;;;17.89;100.00
38620;BME280;24376;51.986;4.662;2022-09-09T12:23:52;100245.44;;;17.75;100.00
38620;BME280;24376;51.986;4.662;2022-09-09T12:26:26;100306.63;;;17.45;100.00
38620;BME280;24376;51.986;4.662;2022-09-09T12:28:56;100377.31;;;17.35;100.00
38620;BME280;24376;51.986;4.662;2022-09-09T12:31:43;100415.31;;;17.22;100.00
38620;BME280;24376;51.986;4.662;2022-09-09T12:34:18;100490.44;;;17.02;100.00
38620;BME280;24376;51.986;4.662;2022-09-09T12:36:51;100560.97;;;17.00;100.00
38620;BME280;24376;51.986;4.662;2022-09-09T12:39:24;100588.25;;;17.16;100.00
38620;BME280;24376;51.986;4.662;2022-09-09T12:41:52;100612.03;;;17.19;100.00
38620;BME280;24376;51.986;4.662;2022-09-09T12:44:22;100596.06;;;17.41;100.00
38620;BME280;24376;51.986;4.662;2022-09-09T12:46:49;100580.94;;;17.58;100.00
38620;BME280;24376;51.986;4.662;2022-09-09T12:49:32;100588.88;;;17.60;100.00
38620;BME280;24376;51.986;4.662;2022-09-09T12:52:01;100579.34;;;17.29;100.00
38620;BME280;24376;51.986;4.662;2022-09-09T12:54:26;100587.25;;;17.33;100.00
38620;BME280;24376;51.986;4.662;2022-09-09T12:56:51;100610.25;;;17.29;100.00
38620;BME280;24376;51.986;4.662;2022-09-09T12:59:24;100628.72;;;17.40;100.00
38620;BME280;24376;51.986;4.662;2022-09-09T13:01:56;100626.06;;;17.40;100.00
38620;BME280;24376;51.986;4.662;2022-09-09T13:04:24;100606.72;;;17.28;100.00
38620;BME280;24376;51.986;4.662;2022-09-09T13:06:50;100628.78;;;17.24;100.00
38620;BME280;24376;51.986;4.662;2022-09-09T13:09:20;100642.78;;;17.48;100.00
38620;BME280;24376;51.986;4.662;2022-09-09T13:11:52;100641.03;;;17.45;100.00
38620;BME280;24376;51.986;4.662;2022-09-09T13:14:28;100615.44;;;17.43;100.00
38620;BME280;24376;51.986;4.662;2022-09-09T13:16:58;100581.91;;;17.43;100.00
38620;BME280;24376;51.986;4.662;2022-09-09T13:19:24;100639.34;;;17.34;100.00
38620;BME280;24376;51.986;4.662;2022-09-09T13:21:52;100647.22;;;17.38;100.00
38620;BME280;24376;51.986;4.662;2022-09-09T13:24:30;100665.72;;;17.52;100.00
38620;BME280;24376;51.986;4.662;2022-09-09T13:27:00;100666.53;;;17.63;100.00
38620;BME280;24376;51.986;4.662;2022-09-09T13:29:27;100682.38;;;17.68;100.00
38620;BME280;24376;51.986;4.662;2022-09-09T13:31:52;100682.97;;;18.17;100.00
38620;BME280;24376;51.986;4.662;2022-09-09T13:36:52;100632.31;;;18.52;100.00
38620;BME280;24376;51.986;4.662;2022-09-09T13:39:18;100570.31;;;18.64;100.00
38620;BME280;24376;51.986;4.662;2022-09-09T13:41:44;100545.78;;;19.18;100.00
38620;BME280;24376;51.986;4.662;2022-09-09T13:47:17;100371.00;;;19.46;100.00
38620;BME280;24376;51.986;4.662;2022-09-09T13:49:44;100296.25;;;19.19;100.00
38620;BME280;24376;51.986;4.662;2022-09-09T13:54:36;100223.91;;;19.09;100.00
38620;BME280;24376;51.986;4.662;2022-09-09T13:57:01;100181.91;;;18.85;100.00
38620;BME280;24376;51.986;4.662;2022-09-09T13:59:27;100215.09;;;18.56;100.00
38620;BME280;24376;51.986;4.662;2022-09-09T14:01:52;100246.53;;;18.22;100.00
38620;BME280;24376;51.986;4.662;2022-09-09T14:04:18;100258.63;;;17.80;100.00
38620;BME280;24376;51.986;4.662;2022-09-09T14:06:45;100307.38;;;17.56;100.00
38620;BME280;24376;51.986;4.662;2022-09-09T14:09:12;100350.03;;;17.28;100.00
38620;BME280;24376;51.986;4.662;2022-09-09T14:11:37;100412.84;;;17.05;100.00
38620;BME280;24376;51.986;4.662;2022-09-09T14:14:06;100480.72;;;17.06;100.00
38620;BME280;24376;51.986;4.662;2022-09-09T14:16:31;100517.81;;;16.91;100.00
38620;BME280;24376;51.986;4.662;2022-09-09T14:18:56;100563.66;;;16.87;100.00
38620;BME280;24376;51.986;4.662;2022-09-09T14:21:22;100602.47;;;16.85;100.00
38620;BME280;24376;51.986;4.662;2022-09-09T14:23:50;100653.59;;;16.90;100.00
38620;BME280;24376;51.986;4.662;2022-09-09T14:26:17;100688.88;;;16.83;100.00
38620;BME280;24376;51.986;4.662;2022-09-09T14:28:43;100722.34;;;16.87;100.00
38620;BME280;24376;51.986;4.662;2022-09-09T14:31:10;100761.13;;;16.92;100.00
38620;BME280;24376;51.986;4.662;2022-09-09T14:33:35;100710.00;;;16.95;100.00
38620;BME280;24376;51.986;4.662;2022-09-09T14:36:01;100814.88;;;17.16;100.00
38620;BME280;24376;51.986;4.662;2022-09-09T14:38:30;100879.28;;;17.13;100.00